Airfield :
LOGIN :

Register | Disclaimer

   EN    FR    IT 

 










Legend :    VFR   Marginal VFR   IFR   Intensive IFR   Very Intensive IFR
Visi :
Ceiling :
>= 8 km
>= 3000ft
5 to 8 km
1000 to 3000 ft
1500m to 5 km
500 to 1000 ft
800 to 1500m
200 to 500 ft
< 800m
< 200 ft
Symbols :   Thunderstorms  Fog  Heavy snow  Heavy precipitations  Wind > 20 kt
SIGMETs :     Misc.  Thunderstorms  Icing  Turbulence  Mountain Waves  Volcanic Ashes






- Airport Elevation : 2026 ft
- IATA code : TOJ


LETO - Madrid Torrejon

CURRENT METAR :
  • 092300Z 02006KT CAVOK 26/07 Q1013 NOSIG

EXPIRED METARs :
  • 092230Z 00000KT CAVOK 28/07 Q1013 NOSIG
  • 092200Z 29002KT CAVOK 27/07 Q1013 NOSIG
  • 092130Z 00000KT CAVOK 26/08 Q1013 NOSIG
  • 092100Z 00000KT 9999 FEW069 29/07 Q1013 NOSIG
  • 092030Z VRB01KT 9999 FEW069 29/07 Q1013 NOSIG

TAF TAF LETO
Valid from the 09 at 18:00 until the 10 at 18:00 UTC


091700Z 0918/1018 VRB05KT CAVOK TX36/0918Z TN21/1006Z
TEMPO 0918/0922 21010KT
PROB30
TEMPO 0918/0920 21015G25KT
BECMG 1010/1012 18012KT
TEMPO 1012/1018 FEW040TCU
PROB40
TEMPO 1012/1018 18018G28KT
PROB30
TEMPO 1013/1018 VRB15G25KT 3000 TSRA SCT040CB



MET'MAP, your aeronautical weather chart ! - Copyright ORBIFLY December 2007 - Disclaimer

ORBIFLY MET'MAP TEAM :

Programming & Development : Alexandra Zaïnal
Concept & original design : Baudouin d'Aumeries
Assistance for programming : Marc-Olivier Méhu
Technical & hardware support : Manuel Goepfert

Contact : metmap@orbifly.com




SOURCES & CREDITS :

   NOAA